Peotone Weather
Station Historical Data
 
Daily Summary for November 20, 2017 Units:  English    Metric   Both
« Previous Day
Next Day »
Daily Weekly Monthly Yearly Custom
  Current: High: Low: Average:
Temperature: 42.2 °F 52.2 °F 28.7 °F 38.5 °F
Dew Point: 34.2 °F 39.7 °F 24.5 °F 31 °F
Humidity: 73% 86% 60% 75%
Wind Speed: 17.2mph 25.3mph 0.0mph 9.8mph
Wind Gust: 18.4mph 28.8mph - -
WindSouth - - South
Pressure: 29.82 in 30.11 in 29.81 in -
Precipitation: 0.00 in      
Historical Graphs
 
 
Tabular Data for November 20, 2017
Time Temperature Dew Point Pressure Wind Wind Speed Wind Gust Humidity Rainfall Rate (Hourly) solar Conditions
00:00 28.7 °F 24.5 °F 30.11 in SW 2.3 mph 10.4 mph 84% 0.00 in 0.00 W/m2
00:03 28.7 °F 24.5 °F 30.11 in SSW 3.4 mph 5.8 mph 84% 0.00 in 0.00 W/m2
00:05 28.8 °F 24.6 °F 30.11 in SSW 3.5 mph 6.9 mph 84% 0.00 in 0.00 W/m2
00:08 28.8 °F 24.6 °F 30.11 in South 2.3 mph 9.2 mph 84% 0.00 in 0.00 W/m2
00:10 28.9 °F 24.7 °F 30.11 in SSW 2.3 mph 9.2 mph 84% 0.00 in 0.00 W/m2
00:13 28.9 °F 24.7 °F 30.11 in Calm   4.6 mph 84% 0.00 in 0.00 W/m2
00:15 29.0 °F 24.5 °F 30.11 in SSW 4.6 mph 8.1 mph 83% 0.00 in 0.00 W/m2
00:18 29.0 °F 24.5 °F 30.11 in SSW 5.8 mph 5.8 mph 83% 0.00 in 0.00 W/m2
00:23 29.2 °F 24.7 °F 30.10 in Calm   5.8 mph 83% 0.00 in 0.00 W/m2
00:28 29.4 °F 24.6 °F 30.10 in SSW 4.6 mph 5.8 mph 82% 0.00 in 0.00 W/m2
00:30 29.5 °F 25.0 °F 30.10 in SSW 5.8 mph 6.9 mph 83% 0.00 in 0.00 W/m2
00:33 29.6 °F 24.8 °F 30.10 in SSW 2.3 mph 5.8 mph 82% 0.00 in 0.00 W/m2
00:38 29.7 °F 24.9 °F 30.10 in SSW 2.3 mph 6.9 mph 82% 0.00 in 0.00 W/m2
00:40 29.8 °F 25.0 °F 30.10 in SSW 2.3 mph 6.9 mph 82% 0.00 in 0.00 W/m2
00:43 29.9 °F 25.1 °F 30.10 in SSW 2.3 mph 5.8 mph 82% 0.00 in 0.00 W/m2
00:45 30.0 °F 25.2 °F 30.10 in SSW 2.3 mph 8.1 mph 82% 0.00 in 0.00 W/m2
00:48 30.0 °F 25.2 °F 30.10 in SW 6.9 mph 6.9 mph 82% 0.00 in 0.00 W/m2
00:50 30.1 °F 25.3 °F 30.09 in SSW 4.6 mph 10.4 mph 82% 0.00 in 0.00 W/m2
00:53 30.1 °F 25.0 °F 30.09 in South 4.6 mph 8.1 mph 81% 0.00 in 0.00 W/m2
00:58 30.2 °F 25.1 °F 30.09 in SW 8.1 mph 8.1 mph 81% 0.00 in 0.00 W/m2
01:00 30.3 °F 25.2 °F 30.09 in SW 8.1 mph 9.2 mph 81% 0.00 in 0.00 W/m2
01:03 30.3 °F 25.2 °F 30.09 in SSW 8.1 mph 10.3 mph 81% 0.00 in 0.00 W/m2
01:05 30.4 °F 25.3 °F 30.09 in SSW 6.9 mph 10.4 mph 81% 0.00 in 0.00 W/m2
01:08 30.4 °F 25.3 °F 30.08 in South 4.6 mph 6.9 mph 81% 0.00 in 0.00 W/m2
01:15 30.5 °F 25.4 °F 30.09 in SW 13.8 mph 13.8 mph 81% 0.00 in 0.00 W/m2
01:18 30.6 °F 25.5 °F 30.09 in South 4.6 mph 13.8 mph 81% 0.00 in 0.00 W/m2
01:20 30.7 °F 25.6 °F 30.08 in SSW 6.9 mph 13.8 mph 81% 0.00 in 0.00 W/m2
01:25 30.7 °F 25.3 °F 30.08 in SSW 3.5 mph 9.2 mph 80% 0.00 in 0.00 W/m2
01:28 30.7 °F 25.3 °F 30.09 in SSW 6.9 mph 8.1 mph 80% 0.00 in 0.00 W/m2
01:30 30.8 °F 25.4 °F 30.08 in South 5.8 mph 8.1 mph 80% 0.00 in 0.00 W/m2
01:33 30.8 °F 25.4 °F 30.08 in SSW 2.3 mph 5.8 mph 80% 0.00 in 0.00 W/m2
01:35 30.9 °F 25.5 °F 30.09 in South 9.2 mph 9.2 mph 80% 0.00 in 0.00 W/m2
01:40 30.8 °F 25.4 °F 30.08 in SSW 8.1 mph 9.2 mph 80% 0.00 in 0.00 W/m2
01:43 30.9 °F 25.5 °F 30.08 in SW 9.2 mph 10.3 mph 80% 0.00 in 0.00 W/m2
01:45 30.9 °F 25.5 °F 30.08 in SSW 4.6 mph 12.6 mph 80% 0.00 in 0.00 W/m2
01:48 30.9 °F 25.5 °F 30.08 in SSW 4.6 mph 9.2 mph 80% 0.00 in 0.00 W/m2
01:50 31.0 °F 25.6 °F 30.08 in SSW 6.9 mph 9.2 mph 80% 0.00 in 0.00 W/m2
01:53 31.0 °F 25.6 °F 30.08 in SSW 5.8 mph 6.9 mph 80% 0.00 in 0.00 W/m2
01:58 31.1 °F 25.7 °F 30.08 in SSE 2.3 mph 9.2 mph 80% 0.00 in 0.00 W/m2
02:00 31.1 °F 25.7 °F 30.08 in SSW 5.8 mph 9.2 mph 80% 0.00 in 0.00 W/m2
02:05 31.2 °F 25.8 °F 30.08 in South 5.8 mph 10.4 mph 80% 0.00 in 0.00 W/m2
02:10 31.3 °F 25.9 °F 30.08 in South 5.8 mph 9.2 mph 80% 0.00 in 0.00 W/m2
02:13 31.3 °F 25.9 °F 30.08 in SW 4.6 mph 8.1 mph 80% 0.00 in 0.00 W/m2
02:15 31.4 °F 26.0 °F 30.08 in SSW 5.8 mph 8.1 mph 80% 0.00 in 0.00 W/m2
02:18 31.4 °F 26.0 °F 30.08 in South 3.4 mph 6.9 mph 80% 0.00 in 0.00 W/m2
02:23 31.4 °F 26.0 °F 30.08 in SSW 6.9 mph 8.1 mph 80% 0.00 in 0.00 W/m2
02:24 31.4 °F 26.0 °F 30.08 in South 6.9 mph 8.1 mph 80% 0.00 in 0.00 W/m2
02:25 31.3 °F 25.9 °F 30.08 in South 4.6 mph 8.1 mph 80% 0.00 in 0.00 W/m2
02:29 31.3 °F 25.9 °F 30.08 in South 6.9 mph 6.9 mph 80% 0.00 in 0.00 W/m2
02:30 31.3 °F 25.9 °F 30.08 in South 2.3 mph 6.9 mph 80% 0.00 in 0.00 W/m2
02:34 31.1 °F 25.7 °F 30.08 in South 4.6 mph 5.8 mph 80% 0.00 in 0.00 W/m2
02:35 31.1 °F 26.0 °F 30.08 in South 2.3 mph 9.2 mph 81% 0.00 in 0.00 W/m2
02:39 31.1 °F 26.0 °F 30.08 in South 8.1 mph 11.5 mph 81% 0.00 in 0.00 W/m2
02:40 31.1 °F 26.0 °F 30.07 in South 9.2 mph 11.5 mph 81% 0.00 in 0.00 W/m2
02:54 30.9 °F 25.8 °F 30.07 in South 5.8 mph 6.9 mph 81% 0.00 in 0.00 W/m2
02:59 30.7 °F 25.6 °F 30.07 in South 2.3 mph 6.9 mph 81% 0.00 in 0.00 W/m2
03:07 30.9 °F 25.8 °F 30.07 in SSE 3.4 mph 5.8 mph 81% 0.00 in 0.00 W/m2
03:13 31.0 °F 25.9 °F 30.07 in SSE 5.8 mph 8.1 mph 81% 0.00 in 0.00 W/m2
03:18 30.9 °F 25.8 °F 30.07 in South 3.4 mph 8.1 mph 81% 0.00 in 0.00 W/m2
03:23 30.7 °F 25.6 °F 30.07 in South 6.9 mph 8.1 mph 81% 0.00 in 0.00 W/m2
03:38 30.7 °F 25.9 °F 30.07 in South 5.8 mph 8.1 mph 82% 0.00 in 0.00 W/m2
03:43 30.9 °F 26.1 °F 30.06 in South 6.9 mph 11.5 mph 82% 0.00 in 0.00 W/m2
03:48 31.0 °F 26.2 °F 30.06 in SSW 8.1 mph 8.1 mph 82% 0.00 in 0.00 W/m2
03:53 31.0 °F 26.2 °F 30.06 in SSW 6.9 mph 6.9 mph 82% 0.00 in 0.00 W/m2
03:58 31.0 °F 26.2 °F 30.06 in South 6.9 mph 9.2 mph 82% 0.00 in 0.00 W/m2
04:03 30.9 °F 26.1 °F 30.06 in South 6.9 mph 6.9 mph 82% 0.00 in 0.00 W/m2
04:08 30.4 °F 25.9 °F 30.06 in South 4.6 mph 9.2 mph 83% 0.00 in 0.00 W/m2
04:13 30.2 °F 25.7 °F 30.06 in South 4.6 mph 8.1 mph 83% 0.00 in 0.00 W/m2
04:18 30.1 °F 25.9 °F 30.06 in SSE 6.9 mph 8.1 mph 84% 0.00 in 0.00 W/m2
04:23 29.8 °F 25.6 °F 30.06 in SSE 6.9 mph 9.2 mph 84% 0.00 in 0.00 W/m2
04:28 29.7 °F 25.8 °F 30.06 in SSE 4.6 mph 8.1 mph 85% 0.00 in 0.00 W/m2
04:33 29.8 °F 25.9 °F 30.06 in SSE 2.3 mph 8.1 mph 85% 0.00 in 0.00 W/m2
04:38 29.8 °F 25.9 °F 30.05 in SSE 6.9 mph 8.1 mph 85% 0.00 in 0.00 W/m2
04:43 29.9 °F 26.0 °F 30.05 in SSE 5.8 mph 9.2 mph 85% 0.00 in 0.00 W/m2
04:52 29.9 °F 26.2 °F 30.05 in SSE 10.3 mph 10.3 mph 86% 0.00 in 0.00 W/m2
04:57 30.2 °F 26.2 °F 30.05 in SSE 10.3 mph 10.3 mph 85% 0.00 in 0.00 W/m2
05:02 30.5 °F 26.5 °F 30.05 in South 8.1 mph 9.2 mph 85% 0.00 in 0.00 W/m2
05:07 30.6 °F 26.4 °F 30.05 in South 8.1 mph 11.5 mph 84% 0.00 in 0.00 W/m2
05:12 30.7 °F 26.5 °F 30.05 in SSE 9.2 mph 10.3 mph 84% 0.00 in 0.00 W/m2
05:17 30.7 °F 26.5 °F 30.05 in SSE 8.1 mph 8.1 mph 84% 0.00 in 0.00 W/m2
05:22 30.8 °F 26.5 °F 30.05 in SSE 8.1 mph 8.1 mph 84% 0.00 in 0.00 W/m2
05:27 30.8 °F 26.5 °F 30.05 in SSE 4.6 mph 8.1 mph 84% 0.00 in 0.00 W/m2
05:37 31.1 °F 26.5 °F 30.04 in South 9.2 mph 9.2 mph 83% 0.00 in 0.00 W/m2
05:42 31.2 °F 26.6 °F 30.04 in SSE 5.8 mph 10.3 mph 83% 0.00 in 0.00 W/m2
05:48 31.4 °F 26.8 °F 30.04 in South 11.5 mph 11.5 mph 83% 0.00 in 0.00 W/m2
05:53 31.3 °F 26.8 °F 30.04 in SSE 3.4 mph 6.9 mph 83% 0.00 in 0.00 W/m2
05:58 31.3 °F 26.8 °F 30.04 in South 3.4 mph 6.9 mph 83% 0.00 in 0.00 W/m2
06:03 31.2 °F 26.6 °F 30.04 in SSE 4.6 mph 6.9 mph 83% 0.00 in 0.00 W/m2
06:08 31.3 °F 26.8 °F 30.04 in South 9.2 mph 11.5 mph 83% 0.00 in 0.00 W/m2
06:18 31.5 °F 26.9 °F 30.04 in SSE 5.8 mph 10.3 mph 83% 0.00 in 0.00 W/m2
06:23 31.7 °F 27.1 °F 30.04 in South 6.9 mph 12.6 mph 83% 0.00 in 0.00 W/m2
06:38 32.1 °F 27.2 °F 30.04 in SSE 8.1 mph 11.5 mph 82% 0.00 in 0.00 W/m2
06:43 32.2 °F 27.3 °F 30.04 in SSE 8.1 mph 12.6 mph 82% 0.00 in 0.00 W/m2
06:48 32.2 °F 27.3 °F 30.03 in South 9.2 mph 13.8 mph 82% 0.00 in 0.00 W/m2
06:49 32.2 °F 27.3 °F 30.03 in SSE 6.9 mph 13.8 mph 82% 0.00 in 5.00 W/m2
06:54 32.2 °F 27.3 °F 30.03 in SSE 6.9 mph 10.3 mph 82% 0.00 in 5.00 W/m2
06:59 32.3 °F 27.4 °F 30.03 in SSE 5.8 mph 12.6 mph 82% 0.00 in 7.00 W/m2
07:04 32.3 °F 27.4 °F 30.03 in South 6.9 mph 13.8 mph 82% 0.00 in 9.00 W/m2
07:09 32.4 °F 27.5 °F 30.04 in SSE 9.2 mph 11.5 mph 82% 0.00 in 12.00 W/m2
07:14 32.5 °F 27.6 °F 30.03 in SSE 8.1 mph 12.6 mph 82% 0.00 in 14.00 W/m2
07:29 33.0 °F 28.1 °F 30.04 in South 9.2 mph 13.8 mph 82% 0.00 in 23.00 W/m2
07:34 33.2 °F 28.0 °F 30.04 in SSW 10.3 mph 14.9 mph 81% 0.00 in 25.00 W/m2
07:39 33.5 °F 28.3 °F 30.04 in South 12.6 mph 14.9 mph 81% 0.00 in 28.00 W/m2
07:44 33.7 °F 28.5 °F 30.04 in South 9.2 mph 14.9 mph 81% 0.00 in 32.00 W/m2
07:49 34.0 °F 28.5 °F 30.03 in South 13.8 mph 19.5 mph 80% 0.00 in 28.00 W/m2
07:59 34.4 °F 28.9 °F 30.02 in South 12.6 mph 19.5 mph 80% 0.00 in 37.00 W/m2
08:04 34.8 °F 29.0 °F 30.01 in SSE 20.7 mph 21.9 mph 79% 0.00 in 47.00 W/m2
08:09 35.1 °F 29.3 °F 30.01 in South 8.1 mph 17.2 mph 79% 0.00 in 42.00 W/m2
08:19 35.7 °F 29.5 °F 30.00 in SW 11.5 mph 17.2 mph 78% 0.00 in 98.00 W/m2
08:24 36.2 °F 29.7 °F 30.00 in SSE 16.1 mph 17.2 mph 77% 0.00 in 81.00 W/m2
08:29 36.6 °F 29.8 °F 30.01 in South 6.9 mph 19.5 mph 76% 0.00 in 79.00 W/m2
08:34 36.8 °F 30.0 °F 30.00 in South 8.1 mph 20.7 mph 76% 0.00 in 35.00 W/m2
08:39 37.1 °F 30.2 °F 30.00 in SSW 11.5 mph 19.5 mph 76% 0.00 in 37.00 W/m2
08:50 37.7 °F 30.5 °F 30.00 in SW 5.8 mph 18.4 mph 75% 0.00 in 37.00 W/m2
08:55 37.9 °F 30.7 °F 30.00 in SE 9.2 mph 16.1 mph 75% 0.00 in 35.00 W/m2
09:00 38.1 °F 30.9 °F 30.00 in South 5.8 mph 17.2 mph 75% 0.00 in 58.00 W/m2
09:05 38.5 °F 31.0 °F 30.00 in SE 10.3 mph 20.7 mph 74% 0.00 in 37.00 W/m2
09:10 38.8 °F 31.2 °F 30.00 in SSW 8.1 mph 13.8 mph 74% 0.00 in 47.00 W/m2
09:15 39.1 °F 31.5 °F 30.00 in SW 9.2 mph 21.9 mph 74% 0.00 in 42.00 W/m2
09:20 39.4 °F 31.8 °F 29.99 in SSW 5.8 mph 18.4 mph 74% 0.00 in 37.00 W/m2
09:25 39.7 °F 31.8 °F 29.99 in SW 10.3 mph 13.8 mph 73% 0.00 in 37.00 W/m2
09:35 40.5 °F 32.2 °F 29.99 in South 8.1 mph 18.4 mph 72% 0.00 in 35.00 W/m2
09:40 40.7 °F 32.4 °F 29.99 in WSW 9.2 mph 18.4 mph 72% 0.00 in 35.00 W/m2
09:45 41.1 °F 32.8 °F 29.99 in SSW 10.3 mph 14.9 mph 72% 0.00 in 37.00 W/m2
09:50 41.6 °F 32.9 °F 29.99 in SE 11.5 mph 19.5 mph 71% 0.00 in 37.00 W/m2
09:55 42.0 °F 32.9 °F 29.98 in SSW 8.1 mph 19.5 mph 70% 0.00 in 37.00 W/m2
10:00 42.4 °F 33.3 °F 29.98 in South 16.1 mph 20.7 mph 70% 0.00 in 37.00 W/m2
10:05 42.8 °F 33.3 °F 29.98 in SSW 6.9 mph 20.7 mph 69% 0.00 in 37.00 W/m2
10:10 43.1 °F 33.6 °F 29.98 in SSW 8.1 mph 20.7 mph 69% 0.00 in 37.00 W/m2
10:15 43.3 °F 33.8 °F 29.98 in SSW 8.1 mph 18.4 mph 69% 0.00 in 39.00 W/m2
10:20 43.8 °F 33.9 °F 29.98 in SSW 11.5 mph 19.5 mph 68% 0.00 in 46.00 W/m2
10:25 44.3 °F 34.4 °F 29.97 in South 9.2 mph 16.1 mph 68% 0.00 in 128.00 W/m2
10:31 44.9 °F 35.4 °F 29.97 in SSW 8.1 mph 16.1 mph 69% 0.00 in 185.00 W/m2
10:36 45.4 °F 34.7 °F 29.97 in SSW 10.3 mph 20.7 mph 66% 0.00 in 373.00 W/m2
10:41 45.8 °F 35.1 °F 29.97 in SSW 13.8 mph 18.4 mph 66% 0.00 in 343.00 W/m2
10:46 46.3 °F 35.2 °F 29.96 in SSW 2.3 mph 18.4 mph 65% 0.00 in 288.00 W/m2
10:51 46.5 °F 35.8 °F 29.96 in SW 5.8 mph 17.2 mph 66% 0.00 in 464.00 W/m2
10:56 47.4 °F 35.8 °F 29.95 in South 9.2 mph 17.2 mph 64% 0.00 in 468.00 W/m2
11:01 47.5 °F 36.3 °F 29.95 in SW 9.2 mph 18.4 mph 65% 0.00 in 471.00 W/m2
11:06 47.8 °F 35.4 °F 29.94 in WSW 18.4 mph 23.0 mph 62% 0.00 in 473.00 W/m2
11:11 47.9 °F 35.5 °F 29.94 in SSW 9.2 mph 24.1 mph 62% 0.00 in 478.00 W/m2
11:16 48.1 °F 35.3 °F 29.94 in South 11.5 mph 20.7 mph 61% 0.00 in 480.00 W/m2
11:21 48.0 °F 35.2 °F 29.93 in SW 17.2 mph 25.3 mph 61% 0.00 in 483.00 W/m2
11:26 48.1 °F 34.9 °F 29.93 in SSW 16.1 mph 25.3 mph 60% 0.00 in 483.00 W/m2
11:36 48.8 °F 36.4 °F 29.92 in SSW 18.4 mph 19.5 mph 62% 0.00 in 487.00 W/m2
11:46 48.8 °F 36.0 °F 29.92 in South 19.5 mph 25.3 mph 61% 0.00 in 485.00 W/m2
11:51 49.0 °F 35.7 °F 29.92 in South 17.2 mph 26.4 mph 60% 0.00 in 483.00 W/m2
12:03 49.1 °F 35.8 °F 29.91 in SSW 12.6 mph 18.4 mph 60% 0.00 in 482.00 W/m2
12:08 49.2 °F 35.9 °F 29.91 in SW 19.5 mph 20.7 mph 60% 0.00 in 478.00 W/m2
12:18 49.8 °F 36.9 °F 29.90 in SSW 11.5 mph 16.1 mph 61% 0.00 in 473.00 W/m2
12:23 49.8 °F 36.9 °F 29.90 in SW 19.5 mph 19.5 mph 61% 0.00 in 469.00 W/m2
12:28 49.7 °F 37.2 °F 29.90 in SSW 8.1 mph 13.8 mph 62% 0.00 in 466.00 W/m2
12:38 50.2 °F 36.9 °F 29.90 in SSW 14.9 mph 24.1 mph 60% 0.00 in 457.00 W/m2
12:53 50.8 °F 37.8 °F 29.89 in SSW 13.8 mph 19.5 mph 61% 0.00 in 438.00 W/m2
12:58 51.0 °F 38.0 °F 29.89 in SW 9.2 mph 19.5 mph 61% 0.00 in 432.00 W/m2
13:08 50.9 °F 38.0 °F 29.89 in South 25.3 mph 25.3 mph 61% 0.00 in 420.00 W/m2
13:13 51.3 °F 37.9 °F 29.88 in SW 13.8 mph 23.0 mph 60% 0.00 in 411.00 W/m2
13:18 51.3 °F 37.9 °F 29.88 in SSW 19.5 mph 20.7 mph 60% 0.00 in 404.00 W/m2
13:23 51.4 °F 38.0 °F 29.89 in South 10.3 mph 19.5 mph 60% 0.00 in 397.00 W/m2
13:28 51.4 °F 38.0 °F 29.89 in SW 9.2 mph 17.2 mph 60% 0.00 in 388.00 W/m2
13:38 51.8 °F 38.4 °F 29.88 in SW 12.6 mph 17.2 mph 60% 0.00 in 371.00 W/m2
13:43 51.9 °F 38.5 °F 29.88 in SE 11.5 mph 11.5 mph 60% 0.00 in 362.00 W/m2
13:58 51.6 °F 38.2 °F 29.87 in SSE 13.8 mph 23.0 mph 60% 0.00 in 332.00 W/m2
14:13 52.1 °F 39.1 °F 29.87 in SSE 10.3 mph 16.1 mph 61% 0.00 in 216.00 W/m2
14:18 52.2 °F 39.6 °F 29.86 in SSE 18.4 mph 18.4 mph 62% 0.00 in 192.00 W/m2
14:23 52.1 °F 38.7 °F 29.86 in South 11.5 mph 24.1 mph 60% 0.00 in 144.00 W/m2
14:28 52.2 °F 39.2 °F 29.86 in SW 14.9 mph 18.4 mph 61% 0.00 in 144.00 W/m2
14:33 52.2 °F 39.6 °F 29.86 in SW 17.2 mph 17.2 mph 62% 0.00 in 118.00 W/m2
14:38 52.2 °F 39.6 °F 29.86 in SSW 20.7 mph 23.0 mph 62% 0.00 in 77.00 W/m2
15:06 52.2 °F 39.6 °F 29.86 in SSW 10.3 mph 24.1 mph 62% 0.00 in 79.00 W/m2
15:11 52.1 °F 39.1 °F 29.85 in SSW 19.5 mph 25.3 mph 61% 0.00 in 86.00 W/m2
15:16 51.9 °F 39.3 °F 29.85 in SSW 12.6 mph 24.1 mph 62% 0.00 in 111.00 W/m2
15:31 51.4 °F 38.8 °F 29.85 in SE 11.5 mph 20.7 mph 62% 0.00 in 79.00 W/m2
15:41 51.0 °F 39.3 °F 29.85 in SSE 19.5 mph 21.9 mph 64% 0.00 in 28.00 W/m2
15:46 50.6 °F 39.7 °F 29.84 in SSW 6.9 mph 9.2 mph 66% 0.00 in 40.00 W/m2
15:51 50.1 °F 39.6 °F 29.84 in SSE 12.6 mph 12.6 mph 67% 0.00 in 26.00 W/m2
15:52 50.0 °F 39.5 °F 29.84 in South 13.8 mph 16.1 mph 67% 0.00 in 26.00 W/m2
16:02 49.4 °F 39.3 °F 29.84 in South 16.1 mph 16.1 mph 68% 0.00 in 21.00 W/m2
16:07 49.1 °F 39.0 °F 29.84 in SSE 17.2 mph 28.8 mph 68% 0.00 in 18.00 W/m2
16:12 48.8 °F 38.7 °F 29.84 in South 8.1 mph 13.8 mph 68% 0.00 in 14.00 W/m2
16:17 48.7 °F 38.6 °F 29.85 in SSW 19.5 mph 20.7 mph 68% 0.00 in 12.00 W/m2
16:27 48.4 °F 38.3 °F 29.84 in SSE 21.9 mph 21.9 mph 68% 0.00 in 5.00 W/m2
16:32 48.1 °F 38.0 °F 29.84 in SSE 13.8 mph 19.5 mph 68% 0.00 in 0.00 W/m2
16:38 47.7 °F 37.7 °F 29.84 in SSE 6.9 mph 19.5 mph 68% 0.00 in 0.00 W/m2
16:43 47.3 °F 38.0 °F 29.84 in SSE 10.3 mph 17.2 mph 70% 0.00 in 0.00 W/m2
16:48 46.9 °F 38.4 °F 29.84 in SSE 13.8 mph 13.8 mph 72% 0.00 in 0.00 W/m2
16:53 46.5 °F 38.3 °F 29.84 in South 17.2 mph 17.2 mph 73% 0.00 in 0.00 W/m2
16:58 46.0 °F 38.2 °F 29.83 in SSE 9.2 mph 19.5 mph 74% 0.00 in 0.00 W/m2
17:03 45.6 °F 38.2 °F 29.83 in South 11.5 mph 17.2 mph 75% 0.00 in 0.00 W/m2
17:08 45.5 °F 38.0 °F 29.84 in South 20.7 mph 20.7 mph 75% 0.00 in 0.00 W/m2
17:18 45.5 °F 37.7 °F 29.83 in SSE 14.9 mph 26.4 mph 74% 0.00 in 0.00 W/m2
17:23 45.3 °F 37.5 °F 29.83 in SSE 12.6 mph 23.0 mph 74% 0.00 in 0.00 W/m2
17:33 45.5 °F 37.0 °F 29.83 in ESE 16.1 mph 20.7 mph 72% 0.00 in 0.00 W/m2
17:43 45.2 °F 36.7 °F 29.82 in South 20.7 mph 26.4 mph 72% 0.00 in 0.00 W/m2
17:48 45.1 °F 36.6 °F 29.83 in South 13.8 mph 25.3 mph 72% 0.00 in 0.00 W/m2
17:53 45.0 °F 36.5 °F 29.83 in South 12.6 mph 23.0 mph 72% 0.00 in 0.00 W/m2
18:03 45.1 °F 36.3 °F 29.82 in SSE 12.6 mph 20.7 mph 71% 0.00 in 0.00 W/m2
18:19 44.9 °F 35.7 °F 29.81 in SSE 19.5 mph 20.7 mph 70% 0.00 in 0.00 W/m2
18:24 44.9 °F 35.7 °F 29.81 in SSE 16.1 mph 23.0 mph 70% 0.00 in 0.00 W/m2
18:29 44.7 °F 35.5 °F 29.82 in SSW 11.5 mph 24.1 mph 70% 0.00 in 0.00 W/m2
18:31 44.7 °F 35.5 °F 29.82 in SSE 9.2 mph 24.1 mph 70% 0.00 in 0.00 W/m2
18:41 44.4 °F 35.2 °F 29.82 in South 19.5 mph 19.5 mph 70% 0.00 in 0.00 W/m2
18:46 44.3 °F 35.2 °F 29.82 in SSW 19.5 mph 19.5 mph 70% 0.00 in 0.00 W/m2
18:51 44.3 °F 35.2 °F 29.81 in South 12.6 mph 21.9 mph 70% 0.00 in 0.00 W/m2
18:56 44.2 °F 35.0 °F 29.82 in South 14.9 mph 16.1 mph 70% 0.00 in 0.00 W/m2
19:02 44.2 °F 35.0 °F 29.81 in South 17.2 mph 19.5 mph 70% 0.00 in 0.00 W/m2
19:17 43.9 °F 34.8 °F 29.82 in SSE 17.2 mph 19.5 mph 70% 0.00 in 0.00 W/m2
19:22 43.9 °F 34.8 °F 29.82 in South 18.4 mph 18.4 mph 70% 0.00 in 0.00 W/m2
19:27 43.9 °F 34.8 °F 29.82 in SSW 23.0 mph 23.0 mph 70% 0.00 in 0.00 W/m2
19:32 43.8 °F 34.7 °F 29.83 in SSW 12.6 mph 16.1 mph 70% 0.00 in 0.00 W/m2
19:37 43.6 °F 34.8 °F 29.83 in SSE 16.1 mph 17.2 mph 71% 0.00 in 0.00 W/m2
19:42 43.4 °F 34.6 °F 29.83 in SSE 20.7 mph 27.6 mph 71% 0.00 in 0.00 W/m2
19:47 43.2 °F 34.5 °F 29.83 in SSE 10.3 mph 14.9 mph 71% 0.00 in 0.00 W/m2
19:52 43.1 °F 34.7 °F 29.83 in South 16.1 mph 23.0 mph 72% 0.00 in 0.00 W/m2
20:02 42.8 °F 34.4 °F 29.82 in South 16.1 mph 16.1 mph 72% 0.00 in 0.00 W/m2
20:09 42.6 °F 34.2 °F 29.82 in SSE 14.9 mph 24.1 mph 72% 0.00 in 0.00 W/m2
20:14 42.5 °F 34.5 °F 29.82 in South 14.9 mph 21.9 mph 73% 0.00 in 0.00 W/m2
20:19 42.4 °F 34.4 °F 29.83 in SSE 10.3 mph 21.9 mph 73% 0.00 in 0.00 W/m2
20:24 42.2 °F 34.2 °F 29.82 in South 17.2 mph 18.4 mph 73% 0.00 in 0.00 W/m2
peotoneweather.com
Compliments of Weather Underground - 3 mb